sensor_id;sensor_type;location;lat;lon;timestamp;pressure;altitude;pressure_sealevel;temperature;humidity
71151;BME280;59071;42.138;24.768;2023-06-10T00:01:18;99095.00;;;22.65;62.47
71151;BME280;59071;42.138;24.768;2023-06-10T00:03:43;99101.88;;;22.30;63.68
71151;BME280;59071;42.138;24.768;2023-06-10T00:06:08;99101.97;;;22.20;63.85
71151;BME280;59071;42.138;24.768;2023-06-10T00:08:34;99103.47;;;21.93;63.94
71151;BME280;59071;42.138;24.768;2023-06-10T00:10:59;99101.47;;;22.37;62.95
71151;BME280;59071;42.138;24.768;2023-06-10T00:13:25;99103.50;;;22.45;62.16
71151;BME280;59071;42.138;24.768;2023-06-10T00:15:50;99101.06;;;22.30;62.42
71151;BME280;59071;42.138;24.768;2023-06-10T00:18:16;99096.69;;;22.48;62.00
71151;BME280;59071;42.138;24.768;2023-06-10T00:20:42;99094.41;;;22.55;61.80
71151;BME280;59071;42.138;24.768;2023-06-10T00:23:07;99092.53;;;22.83;60.90
71151;BME280;59071;42.138;24.768;2023-06-10T00:25:33;99098.88;;;23.20;59.55
71151;BME280;59071;42.138;24.768;2023-06-10T00:27:58;99091.72;;;23.24;59.13
71151;BME280;59071;42.138;24.768;2023-06-10T00:30:24;99095.66;;;23.18;59.54
71151;BME280;59071;42.138;24.768;2023-06-10T00:32:49;99093.13;;;23.35;58.72
71151;BME280;59071;42.138;24.768;2023-06-10T00:35:15;99094.75;;;23.22;58.90
71151;BME280;59071;42.138;24.768;2023-06-10T00:37:40;99102.03;;;22.53;60.97
71151;BME280;59071;42.138;24.768;2023-06-10T00:40:06;99096.38;;;22.49;61.90
71151;BME280;59071;42.138;24.768;2023-06-10T00:42:34;99090.97;;;22.49;61.42
71151;BME280;59071;42.138;24.768;2023-06-10T00:44:59;99092.31;;;22.33;61.53
71151;BME280;59071;42.138;24.768;2023-06-10T00:47:25;99093.28;;;22.56;61.18
71151;BME280;59071;42.138;24.768;2023-06-10T00:49:50;99090.09;;;22.81;60.29
71151;BME280;59071;42.138;24.768;2023-06-10T00:52:16;99087.69;;;22.80;60.58
71151;BME280;59071;42.138;24.768;2023-06-10T00:54:42;99091.59;;;22.74;60.24
71151;BME280;59071;42.138;24.768;2023-06-10T00:57:07;99091.38;;;22.56;60.56
71151;BME280;59071;42.138;24.768;2023-06-10T00:59:33;99089.91;;;22.78;59.78
71151;BME280;59071;42.138;24.768;2023-06-10T01:01:59;99093.69;;;22.77;60.19
71151;BME280;59071;42.138;24.768;2023-06-10T01:04:25;99089.69;;;22.60;60.47
71151;BME280;59071;42.138;24.768;2023-06-10T01:07:00;99089.31;;;22.81;59.58
71151;BME280;59071;42.138;24.768;2023-06-10T01:12:26;99104.91;;;23.03;58.42
71151;BME280;59071;42.138;24.768;2023-06-10T01:14:51;99101.47;;;22.97;58.48
71151;BME280;59071;42.138;24.768;2023-06-10T01:17:17;99100.38;;;22.98;58.86
71151;BME280;59071;42.138;24.768;2023-06-10T01:19:43;99110.09;;;22.86;59.24
71151;BME280;59071;42.138;24.768;2023-06-10T01:22:09;99105.50;;;22.20;61.55
71151;BME280;59071;42.138;24.768;2023-06-10T01:24:35;99092.03;;;22.34;61.26
71151;BME280;59071;42.138;24.768;2023-06-10T01:27:01;99089.34;;;22.48;60.99
71151;BME280;59071;42.138;24.768;2023-06-10T01:29:33;99100.09;;;22.53;60.57
71151;BME280;59071;42.138;24.768;2023-06-10T01:32:13;99100.84;;;22.73;59.96
71151;BME280;59071;42.138;24.768;2023-06-10T01:34:40;99100.25;;;22.62;60.40
71151;BME280;59071;42.138;24.768;2023-06-10T01:37:07;99110.47;;;22.79;59.58
71151;BME280;59071;42.138;24.768;2023-06-10T01:39:34;99112.00;;;22.85;59.38
71151;BME280;59071;42.138;24.768;2023-06-10T01:42:00;99111.09;;;22.90;59.11
71151;BME280;59071;42.138;24.768;2023-06-10T01:44:27;99110.41;;;22.84;58.95
71151;BME280;59071;42.138;24.768;2023-06-10T01:46:52;99112.22;;;22.89;58.86
71151;BME280;59071;42.138;24.768;2023-06-10T01:49:18;99100.53;;;22.60;59.72
71151;BME280;59071;42.138;24.768;2023-06-10T01:51:43;99097.47;;;22.48;60.24
71151;BME280;59071;42.138;24.768;2023-06-10T01:54:08;99102.44;;;22.60;59.87
71151;BME280;59071;42.138;24.768;2023-06-10T01:56:33;99104.16;;;22.70;59.86
71151;BME280;59071;42.138;24.768;2023-06-10T01:58:59;99113.31;;;22.74;59.34
71151;BME280;59071;42.138;24.768;2023-06-10T02:01:25;99109.31;;;22.85;58.87
71151;BME280;59071;42.138;24.768;2023-06-10T02:03:50;99113.50;;;22.77;58.93
71151;BME280;59071;42.138;24.768;2023-06-10T02:06:15;99109.69;;;22.78;59.14
71151;BME280;59071;42.138;24.768;2023-06-10T02:08:41;99112.19;;;22.75;58.92
71151;BME280;59071;42.138;24.768;2023-06-10T02:11:06;99121.31;;;22.79;59.76
71151;BME280;59071;42.138;24.768;2023-06-10T02:13:32;99115.38;;;22.63;59.60
71151;BME280;59071;42.138;24.768;2023-06-10T02:15:57;99118.72;;;22.74;59.40
71151;BME280;59071;42.138;24.768;2023-06-10T02:18:22;99120.22;;;22.66;59.44
71151;BME280;59071;42.138;24.768;2023-06-10T02:20:48;99111.44;;;22.41;60.17
71151;BME280;59071;42.138;24.768;2023-06-10T02:23:14;99110.09;;;22.39;60.71
71151;BME280;59071;42.138;24.768;2023-06-10T02:25:39;99126.91;;;22.41;60.53
71151;BME280;59071;42.138;24.768;2023-06-10T02:28:05;99115.47;;;22.25;61.70
71151;BME280;59071;42.138;24.768;2023-06-10T02:30:30;99121.59;;;22.50;60.76
71151;BME280;59071;42.138;24.768;2023-06-10T02:32:55;99116.50;;;22.62;59.93
71151;BME280;59071;42.138;24.768;2023-06-10T02:35:21;99121.22;;;22.70;59.51
71151;BME280;59071;42.138;24.768;2023-06-10T02:37:49;99116.69;;;22.65;59.67
71151;BME280;59071;42.138;24.768;2023-06-10T02:40:14;99115.47;;;22.58;59.66
71151;BME280;59071;42.138;24.768;2023-06-10T02:42:40;99114.88;;;22.61;59.79
71151;BME280;59071;42.138;24.768;2023-06-10T02:45:05;99121.78;;;22.53;60.33
71151;BME280;59071;42.138;24.768;2023-06-10T02:47:31;99128.91;;;22.49;60.30
71151;BME280;59071;42.138;24.768;2023-06-10T02:49:56;99118.88;;;22.50;60.52
71151;BME280;59071;42.138;24.768;2023-06-10T02:52:21;99121.75;;;21.88;61.91
71151;BME280;59071;42.138;24.768;2023-06-10T02:54:47;99122.31;;;21.84;62.25
71151;BME280;59071;42.138;24.768;2023-06-10T02:57:13;99125.75;;;22.09;61.73
71151;BME280;59071;42.138;24.768;2023-06-10T02:59:39;99122.34;;;22.17;61.20
71151;BME280;59071;42.138;24.768;2023-06-10T03:02:05;99122.28;;;22.22;61.41
71151;BME280;59071;42.138;24.768;2023-06-10T03:04:30;99131.38;;;22.13;61.70
71151;BME280;59071;42.138;24.768;2023-06-10T03:06:55;99132.41;;;22.17;61.42
71151;BME280;59071;42.138;24.768;2023-06-10T03:09:21;99140.22;;;22.18;61.40
71151;BME280;59071;42.138;24.768;2023-06-10T03:11:46;99138.81;;;22.21;61.48
71151;BME280;59071;42.138;24.768;2023-06-10T03:14:11;99131.50;;;22.02;61.88
71151;BME280;59071;42.138;24.768;2023-06-10T03:16:37;99142.72;;;21.96;62.27
71151;BME280;59071;42.138;24.768;2023-06-10T03:19:05;99142.56;;;22.06;62.08
71151;BME280;59071;42.138;24.768;2023-06-10T03:21:31;99131.59;;;22.16;61.49
71151;BME280;59071;42.138;24.768;2023-06-10T03:23:56;99139.50;;;22.13;61.99
71151;BME280;59071;42.138;24.768;2023-06-10T03:26:21;99144.31;;;22.16;61.98
71151;BME280;59071;42.138;24.768;2023-06-10T03:28:47;99137.31;;;22.34;61.54
71151;BME280;59071;42.138;24.768;2023-06-10T03:31:12;99140.97;;;22.43;61.23
71151;BME280;59071;42.138;24.768;2023-06-10T03:33:38;99142.56;;;22.44;61.26
71151;BME280;59071;42.138;24.768;2023-06-10T03:36:04;99140.06;;;22.48;60.97
71151;BME280;59071;42.138;24.768;2023-06-10T03:38:29;99136.81;;;22.32;61.49
71151;BME280;59071;42.138;24.768;2023-06-10T03:40:54;99140.31;;;22.32;61.87
71151;BME280;59071;42.138;24.768;2023-06-10T03:43:20;99133.59;;;22.30;61.81
71151;BME280;59071;42.138;24.768;2023-06-10T03:45:45;99145.94;;;22.17;62.08
71151;BME280;59071;42.138;24.768;2023-06-10T03:48:11;99146.66;;;22.22;61.91
71151;BME280;59071;42.138;24.768;2023-06-10T03:50:36;99153.84;;;22.32;61.86
71151;BME280;59071;42.138;24.768;2023-06-10T03:53:02;99149.53;;;22.31;61.32
71151;BME280;59071;42.138;24.768;2023-06-10T03:55:27;99154.06;;;22.17;61.82
71151;BME280;59071;42.138;24.768;2023-06-10T03:57:53;99150.94;;;22.29;61.52
71151;BME280;59071;42.138;24.768;2023-06-10T04:00:18;99146.31;;;22.29;61.59
71151;BME280;59071;42.138;24.768;2023-06-10T04:02:46;99142.00;;;22.28;61.57
71151;BME280;59071;42.138;24.768;2023-06-10T04:05:13;99146.81;;;22.31;61.39
71151;BME280;59071;42.138;24.768;2023-06-10T04:07:39;99143.03;;;22.32;61.17
71151;BME280;59071;42.138;24.768;2023-06-10T04:10:06;99143.66;;;22.43;60.72
71151;BME280;59071;42.138;24.768;2023-06-10T04:12:32;99141.94;;;22.33;61.06
71151;BME280;59071;42.138;24.768;2023-06-10T04:14:57;99144.00;;;22.55;60.52
71151;BME280;59071;42.138;24.768;2023-06-10T04:17:22;99141.44;;;22.78;60.11
71151;BME280;59071;42.138;24.768;2023-06-10T04:19:47;99141.22;;;22.88;59.79
71151;BME280;59071;42.138;24.768;2023-06-10T04:22:13;99144.34;;;22.81;59.86
71151;BME280;59071;42.138;24.768;2023-06-10T04:24:38;99142.56;;;22.91;59.27
71151;BME280;59071;42.138;24.768;2023-06-10T04:27:03;99136.63;;;23.02;58.66
71151;BME280;59071;42.138;24.768;2023-06-10T04:29:29;99143.09;;;23.07;58.77
71151;BME280;59071;42.138;24.768;2023-06-10T04:31:54;99135.38;;;23.14;58.17
71151;BME280;59071;42.138;24.768;2023-06-10T04:34:19;99144.91;;;23.11;58.28
71151;BME280;59071;42.138;24.768;2023-06-10T04:36:45;99144.78;;;23.02;58.72
71151;BME280;59071;42.138;24.768;2023-06-10T04:39:10;99139.66;;;23.01;58.64
71151;BME280;59071;42.138;24.768;2023-06-10T04:41:35;99127.13;;;23.19;58.26
71151;BME280;59071;42.138;24.768;2023-06-10T04:44:01;99138.88;;;23.28;57.75
71151;BME280;59071;42.138;24.768;2023-06-10T04:46:26;99140.41;;;23.34;57.61
71151;BME280;59071;42.138;24.768;2023-06-10T04:48:51;99129.22;;;23.50;57.16
71151;BME280;59071;42.138;24.768;2023-06-10T04:51:17;99127.50;;;23.54;57.32
71151;BME280;59071;42.138;24.768;2023-06-10T04:53:42;99121.44;;;23.57;57.46
71151;BME280;59071;42.138;24.768;2023-06-10T04:56:07;99122.81;;;23.68;57.19
71151;BME280;59071;42.138;24.768;2023-06-10T04:58:33;99124.03;;;23.90;56.99
71151;BME280;59071;42.138;24.768;2023-06-10T05:00:58;99130.81;;;24.01;57.08
71151;BME280;59071;42.138;24.768;2023-06-10T05:03:24;99138.97;;;24.24;56.14
71151;BME280;59071;42.138;24.768;2023-06-10T05:05:49;99130.81;;;24.46;56.21
71151;BME280;59071;42.138;24.768;2023-06-10T05:08:15;99137.50;;;24.63;55.17
71151;BME280;59071;42.138;24.768;2023-06-10T05:10:40;99135.38;;;24.82;54.56
71151;BME280;59071;42.138;24.768;2023-06-10T05:13:06;99138.31;;;24.94;54.01
71151;BME280;59071;42.138;24.768;2023-06-10T05:15:31;99135.00;;;25.15;55.28
71151;BME280;59071;42.138;24.768;2023-06-10T05:17:56;99147.22;;;25.17;55.44
71151;BME280;59071;42.138;24.768;2023-06-10T05:20:23;99139.81;;;25.49;54.22
71151;BME280;59071;42.138;24.768;2023-06-10T05:22:50;99132.78;;;25.57;53.27
71151;BME280;59071;42.138;24.768;2023-06-10T05:25:15;99134.72;;;25.83;51.87
71151;BME280;59071;42.138;24.768;2023-06-10T05:27:40;99130.50;;;25.50;51.88
71151;BME280;59071;42.138;24.768;2023-06-10T05:30:07;99123.47;;;25.49;51.41
71151;BME280;59071;42.138;24.768;2023-06-10T05:32:33;99132.91;;;25.52;51.75
71151;BME280;59071;42.138;24.768;2023-06-10T05:34:58;99130.47;;;24.93;52.55
71151;BME280;59071;42.138;24.768;2023-06-10T05:37:25;99125.16;;;24.88;52.75
71151;BME280;59071;42.138;24.768;2023-06-10T05:39:50;99126.00;;;24.97;50.83
71151;BME280;59071;42.138;24.768;2023-06-10T05:42:16;99126.63;;;24.40;53.51
71151;BME280;59071;42.138;24.768;2023-06-10T05:44:41;99131.25;;;24.93;52.44
71151;BME280;59071;42.138;24.768;2023-06-10T05:47:06;99129.06;;;25.04;51.87
71151;BME280;59071;42.138;24.768;2023-06-10T05:49:32;99133.78;;;24.90;53.80
71151;BME280;59071;42.138;24.768;2023-06-10T05:51:57;99130.06;;;25.17;52.89
71151;BME280;59071;42.138;24.768;2023-06-10T05:54:24;99135.56;;;25.26;52.76
71151;BME280;59071;42.138;24.768;2023-06-10T05:56:49;99138.72;;;25.77;52.03
71151;BME280;59071;42.138;24.768;2023-06-10T05:59:14;99143.06;;;26.04;51.68
71151;BME280;59071;42.138;24.768;2023-06-10T06:01:40;99142.41;;;26.42;51.14
71151;BME280;59071;42.138;24.768;2023-06-10T06:04:05;99141.19;;;26.86;49.72
71151;BME280;59071;42.138;24.768;2023-06-10T06:06:30;99141.00;;;26.91;48.18
71151;BME280;59071;42.138;24.768;2023-06-10T06:08:56;99135.22;;;27.02;47.59
71151;BME280;59071;42.138;24.768;2023-06-10T06:11:21;99147.47;;;27.25;47.03
71151;BME280;59071;42.138;24.768;2023-06-10T06:13:47;99141.50;;;27.32;46.12
71151;BME280;59071;42.138;24.768;2023-06-10T06:16:13;99148.41;;;26.91;45.72
71151;BME280;59071;42.138;24.768;2023-06-10T06:18:38;99151.84;;;27.09;46.02
71151;BME280;59071;42.138;24.768;2023-06-10T06:21:04;99151.28;;;26.95;45.97
71151;BME280;59071;42.138;24.768;2023-06-10T06:23:29;99153.03;;;27.38;45.26
71151;BME280;59071;42.138;24.768;2023-06-10T06:25:55;99153.63;;;27.43;44.69
71151;BME280;59071;42.138;24.768;2023-06-10T06:28:20;99142.97;;;27.80;44.43
71151;BME280;59071;42.138;24.768;2023-06-10T06:30:47;99147.69;;;27.71;44.34
71151;BME280;59071;42.138;24.768;2023-06-10T06:33:13;99137.53;;;28.01;43.38
71151;BME280;59071;42.138;24.768;2023-06-10T06:35:38;99140.75;;;27.74;44.69
71151;BME280;59071;42.138;24.768;2023-06-10T06:38:03;99138.94;;;27.57;45.08
71151;BME280;59071;42.138;24.768;2023-06-10T06:40:29;99135.75;;;28.18;44.38
71151;BME280;59071;42.138;24.768;2023-06-10T06:42:54;99138.19;;;28.53;43.76
71151;BME280;59071;42.138;24.768;2023-06-10T06:45:20;99128.13;;;28.90;42.60
71151;BME280;59071;42.138;24.768;2023-06-10T06:47:45;99129.16;;;28.98;42.19
71151;BME280;59071;42.138;24.768;2023-06-10T06:50:10;99128.03;;;29.11;41.66
71151;BME280;59071;42.138;24.768;2023-06-10T06:52:36;99137.81;;;29.49;41.44
71151;BME280;59071;42.138;24.768;2023-06-10T06:55:01;99127.78;;;29.78;40.47
71151;BME280;59071;42.138;24.768;2023-06-10T06:57:27;99127.91;;;29.44;41.27
71151;BME280;59071;42.138;24.768;2023-06-10T06:59:52;99122.00;;;29.30;41.75
71151;BME280;59071;42.138;24.768;2023-06-10T07:02:17;99122.03;;;29.83;41.30
71151;BME280;59071;42.138;24.768;2023-06-10T07:04:44;99121.38;;;30.30;40.87
71151;BME280;59071;42.138;24.768;2023-06-10T07:07:10;99128.38;;;30.56;39.76
71151;BME280;59071;42.138;24.768;2023-06-10T07:09:37;99117.66;;;30.67;38.98
71151;BME280;59071;42.138;24.768;2023-06-10T07:12:02;99119.25;;;30.68;39.14
71151;BME280;59071;42.138;24.768;2023-06-10T07:14:27;99124.75;;;30.84;38.46
71151;BME280;59071;42.138;24.768;2023-06-10T07:16:53;99108.97;;;30.49;38.97
71151;BME280;59071;42.138;24.768;2023-06-10T07:19:18;99113.28;;;30.94;38.62
71151;BME280;59071;42.138;24.768;2023-06-10T07:21:43;99115.34;;;31.16;38.07
71151;BME280;59071;42.138;24.768;2023-06-10T07:24:08;99104.50;;;31.04;38.24
71151;BME280;59071;42.138;24.768;2023-06-10T07:26:34;99105.94;;;31.49;37.73
71151;BME280;59071;42.138;24.768;2023-06-10T07:28:59;99100.78;;;31.48;37.20
71151;BME280;59071;42.138;24.768;2023-06-10T07:31:24;99095.53;;;30.75;38.50
71151;BME280;59071;42.138;24.768;2023-06-10T07:33:50;99094.97;;;31.17;37.75
71151;BME280;59071;42.138;24.768;2023-06-10T07:36:15;99102.19;;;31.77;37.31
71151;BME280;59071;42.138;24.768;2023-06-10T07:38:40;99101.03;;;31.98;36.20
71151;BME280;59071;42.138;24.768;2023-06-10T07:41:07;99097.19;;;31.83;36.65
71151;BME280;59071;42.138;24.768;2023-06-10T07:43:32;99101.66;;;31.52;37.69
71151;BME280;59071;42.138;24.768;2023-06-10T07:45:58;99104.09;;;32.12;36.59
71151;BME280;59071;42.138;24.768;2023-06-10T07:48:24;99102.47;;;32.30;36.31
71151;BME280;59071;42.138;24.768;2023-06-10T07:50:51;99092.56;;;31.48;36.93
71151;BME280;59071;42.138;24.768;2023-06-10T07:53:16;99095.66;;;31.85;36.62
71151;BME280;59071;42.138;24.768;2023-06-10T07:55:41;99102.56;;;32.14;36.13
71151;BME280;59071;42.138;24.768;2023-06-10T07:58:07;99101.03;;;31.98;36.21
71151;BME280;59071;42.138;24.768;2023-06-10T08:00:32;99106.56;;;32.83;34.79
71151;BME280;59071;42.138;24.768;2023-06-10T08:02:57;99097.88;;;32.58;34.66
71151;BME280;59071;42.138;24.768;2023-06-10T08:05:23;99102.75;;;32.91;33.81
71151;BME280;59071;42.138;24.768;2023-06-10T08:07:48;99093.41;;;33.22;34.07
71151;BME280;59071;42.138;24.768;2023-06-10T08:10:13;99094.34;;;33.34;33.72
71151;BME280;59071;42.138;24.768;2023-06-10T08:12:39;99092.88;;;33.66;33.19
71151;BME280;59071;42.138;24.768;2023-06-10T08:15:04;99089.72;;;33.41;32.75
71151;BME280;59071;42.138;24.768;2023-06-10T08:17:30;99094.75;;;34.26;32.19
71151;BME280;59071;42.138;24.768;2023-06-10T08:19:55;99098.34;;;34.68;31.38
71151;BME280;59071;42.138;24.768;2023-06-10T08:22:20;99088.91;;;34.73;30.15
71151;BME280;59071;42.138;24.768;2023-06-10T08:24:46;99086.72;;;35.55;29.80
71151;BME280;59071;42.138;24.768;2023-06-10T08:27:11;99090.91;;;35.31;29.18
71151;BME280;59071;42.138;24.768;2023-06-10T08:29:36;99084.22;;;36.20;28.69
71151;BME280;59071;42.138;24.768;2023-06-10T08:32:02;99083.09;;;36.86;27.90
71151;BME280;59071;42.138;24.768;2023-06-10T08:34:27;99082.28;;;37.17;27.68
71151;BME280;59071;42.138;24.768;2023-06-10T08:36:53;99083.88;;;36.97;27.67
71151;BME280;59071;42.138;24.768;2023-06-10T08:39:20;99088.97;;;37.31;27.22
71151;BME280;59071;42.138;24.768;2023-06-10T08:41:48;99085.84;;;36.93;27.62
71151;BME280;59071;42.138;24.768;2023-06-10T08:44:25;99075.53;;;36.22;28.31
71151;BME280;59071;42.138;24.768;2023-06-10T08:46:52;99080.28;;;36.39;28.05
71151;BME280;59071;42.138;24.768;2023-06-10T08:49:18;99080.66;;;36.23;29.05
71151;BME280;59071;42.138;24.768;2023-06-10T08:51:47;99076.72;;;36.46;28.37
71151;BME280;59071;42.138;24.768;2023-06-10T08:54:15;99071.22;;;36.71;27.44
71151;BME280;59071;42.138;24.768;2023-06-10T08:56:43;99066.25;;;35.71;28.29
71151;BME280;59071;42.138;24.768;2023-06-10T08:59:10;99065.09;;;35.82;28.64
71151;BME280;59071;42.138;24.768;2023-06-10T09:01:35;99068.34;;;34.25;29.83
71151;BME280;59071;42.138;24.768;2023-06-10T09:04:01;99059.94;;;35.70;28.55
71151;BME280;59071;42.138;24.768;2023-06-10T09:06:26;99057.75;;;36.87;27.65
71151;BME280;59071;42.138;24.768;2023-06-10T09:08:52;99046.25;;;37.00;26.25
71151;BME280;59071;42.138;24.768;2023-06-10T09:11:17;99051.44;;;38.00;26.13
71151;BME280;59071;42.138;24.768;2023-06-10T09:13:43;99051.38;;;38.18;24.83
71151;BME280;59071;42.138;24.768;2023-06-10T09:16:08;99046.56;;;38.75;24.63
71151;BME280;59071;42.138;24.768;2023-06-10T09:18:34;99038.47;;;37.79;21.96
71151;BME280;59071;42.138;24.768;2023-06-10T09:21:00;99036.34;;;36.88;23.02
71151;BME280;59071;42.138;24.768;2023-06-10T09:23:25;99037.88;;;35.99;24.16
71151;BME280;59071;42.138;24.768;2023-06-10T09:25:57;99039.81;;;35.84;24.33
71151;BME280;59071;42.138;24.768;2023-06-10T09:28:23;99035.16;;;36.42;23.44
71151;BME280;59071;42.138;24.768;2023-06-10T09:30:48;99028.03;;;36.59;23.44
71151;BME280;59071;42.138;24.768;2023-06-10T09:33:14;99041.84;;;36.09;24.02
71151;BME280;59071;42.138;24.768;2023-06-10T09:35:46;99043.22;;;34.90;25.25
71151;BME280;59071;42.138;24.768;2023-06-10T09:38:12;99041.25;;;34.87;25.56
71151;BME280;59071;42.138;24.768;2023-06-10T09:40:50;99038.81;;;35.40;24.66
71151;BME280;59071;42.138;24.768;2023-06-10T09:43:16;99041.34;;;34.53;26.16
71151;BME280;59071;42.138;24.768;2023-06-10T09:45:41;99037.22;;;33.91;26.65
71151;BME280;59071;42.138;24.768;2023-06-10T09:48:08;99041.94;;;34.28;26.67
71151;BME280;59071;42.138;24.768;2023-06-10T09:50:33;99033.28;;;34.78;26.53
71151;BME280;59071;42.138;24.768;2023-06-10T09:52:59;99035.06;;;34.52;26.12
71151;BME280;59071;42.138;24.768;2023-06-10T09:55:27;99035.03;;;35.04;26.05
71151;BME280;59071;42.138;24.768;2023-06-10T09:57:53;99034.94;;;34.90;26.85
71151;BME280;59071;42.138;24.768;2023-06-10T10:00:18;99040.38;;;34.75;29.36
71151;BME280;59071;42.138;24.768;2023-06-10T10:02:45;99040.84;;;33.65;31.64
71151;BME280;59071;42.138;24.768;2023-06-10T10:05:12;99040.47;;;31.74;34.21
71151;BME280;59071;42.138;24.768;2023-06-10T10:07:38;99047.09;;;30.07;37.51
71151;BME280;59071;42.138;24.768;2023-06-10T10:10:04;99049.13;;;30.10;38.02
71151;BME280;59071;42.138;24.768;2023-06-10T10:12:30;99038.06;;;31.18;36.00
71151;BME280;59071;42.138;24.768;2023-06-10T10:14:55;99044.84;;;31.99;34.58
71151;BME280;59071;42.138;24.768;2023-06-10T10:17:21;99045.09;;;31.15;36.15
71151;BME280;59071;42.138;24.768;2023-06-10T10:19:50;99040.03;;;31.53;35.19
71151;BME280;59071;42.138;24.768;2023-06-10T10:22:19;99038.28;;;31.64;35.15
71151;BME280;59071;42.138;24.768;2023-06-10T10:24:46;99044.06;;;31.98;34.81
71151;BME280;59071;42.138;24.768;2023-06-10T10:27:17;99033.34;;;30.99;34.97
71151;BME280;59071;42.138;24.768;2023-06-10T10:29:42;99038.41;;;30.49;36.15
71151;BME280;59071;42.138;24.768;2023-06-10T10:32:10;99029.41;;;30.84;35.65
71151;BME280;59071;42.138;24.768;2023-06-10T10:34:39;99030.25;;;31.20;35.46
71151;BME280;59071;42.138;24.768;2023-06-10T10:37:08;99028.94;;;32.31;33.97
71151;BME280;59071;42.138;24.768;2023-06-10T10:39:34;99025.09;;;32.82;33.73
71151;BME280;59071;42.138;24.768;2023-06-10T10:41:59;99022.41;;;32.39;33.38
71151;BME280;59071;42.138;24.768;2023-06-10T10:44:25;99017.78;;;32.66;32.74
71151;BME280;59071;42.138;24.768;2023-06-10T10:46:50;99022.59;;;33.00;33.14
71151;BME280;59071;42.138;24.768;2023-06-10T10:49:17;99021.72;;;32.69;32.46
71151;BME280;59071;42.138;24.768;2023-06-10T10:51:55;99022.09;;;32.44;32.40
71151;BME280;59071;42.138;24.768;2023-06-10T10:54:27;99026.69;;;33.09;31.95
71151;BME280;59071;42.138;24.768;2023-06-10T11:02:18;99022.91;;;32.45;32.43
71151;BME280;59071;42.138;24.768;2023-06-10T11:04:47;99020.75;;;33.34;31.41
71151;BME280;59071;42.138;24.768;2023-06-10T11:07:12;99018.34;;;33.63;30.57
71151;BME280;59071;42.138;24.768;2023-06-10T11:09:57;99024.22;;;34.33;30.08
71151;BME280;59071;42.138;24.768;2023-06-10T11:12:23;99013.28;;;34.95;28.47
71151;BME280;59071;42.138;24.768;2023-06-10T11:14:53;99012.34;;;35.39;28.32
71151;BME280;59071;42.138;24.768;2023-06-10T11:17:20;99013.31;;;35.02;28.36
71151;BME280;59071;42.138;24.768;2023-06-10T11:19:45;99009.16;;;33.85;29.68
71151;BME280;59071;42.138;24.768;2023-06-10T11:22:15;99014.59;;;31.40;33.09
71151;BME280;59071;42.138;24.768;2023-06-10T11:24:41;98998.09;;;30.21;35.83
71151;BME280;59071;42.138;24.768;2023-06-10T11:27:22;98996.66;;;30.12;35.61
71151;BME280;59071;42.138;24.768;2023-06-10T11:32:33;98995.06;;;30.27;35.94
71151;BME280;59071;42.138;24.768;2023-06-10T11:34:59;98999.09;;;29.57;36.48
71151;BME280;59071;42.138;24.768;2023-06-10T11:37:25;98997.34;;;29.65;36.16
71151;BME280;59071;42.138;24.768;2023-06-10T11:39:54;98992.03;;;30.00;35.73
71151;BME280;59071;42.138;24.768;2023-06-10T11:42:19;98998.06;;;30.06;35.50
71151;BME280;59071;42.138;24.768;2023-06-10T11:44:49;98987.31;;;29.85;36.13
71151;BME280;59071;42.138;24.768;2023-06-10T11:47:14;98987.13;;;30.53;35.54
71151;BME280;59071;42.138;24.768;2023-06-10T11:49:40;98972.78;;;31.89;34.36
71151;BME280;59071;42.138;24.768;2023-06-10T11:52:05;98978.00;;;31.75;33.37
71151;BME280;59071;42.138;24.768;2023-06-10T11:54:33;98975.94;;;32.11;32.57
71151;BME280;59071;42.138;24.768;2023-06-10T11:56:59;98967.00;;;32.41;31.77
71151;BME280;59071;42.138;24.768;2023-06-10T11:59:28;98966.63;;;32.65;31.50
71151;BME280;59071;42.138;24.768;2023-06-10T12:01:53;98971.91;;;33.35;31.76
71151;BME280;59071;42.138;24.768;2023-06-10T12:04:19;98976.47;;;34.28;29.85
71151;BME280;59071;42.138;24.768;2023-06-10T12:06:45;98963.56;;;33.99;29.80
71151;BME280;59071;42.138;24.768;2023-06-10T12:11:45;98955.25;;;32.21;32.01
71151;BME280;59071;42.138;24.768;2023-06-10T12:14:13;98952.69;;;32.31;31.55
71151;BME280;59071;42.138;24.768;2023-06-10T12:16:38;98954.53;;;32.73;31.46
71151;BME280;59071;42.138;24.768;2023-06-10T12:19:04;98948.31;;;33.37;30.63
71151;BME280;59071;42.138;24.768;2023-06-10T12:21:31;98951.59;;;32.89;31.66
71151;BME280;59071;42.138;24.768;2023-06-10T12:24:01;98958.09;;;33.04;32.18
71151;BME280;59071;42.138;24.768;2023-06-10T12:29:23;98960.25;;;32.38;33.74
71151;BME280;59071;42.138;24.768;2023-06-10T12:31:55;98952.53;;;31.59;35.12
71151;BME280;59071;42.138;24.768;2023-06-10T12:34:27;98947.59;;;30.74;35.19
71151;BME280;59071;42.138;24.768;2023-06-10T12:36:53;98946.03;;;30.25;36.04
71151;BME280;59071;42.138;24.768;2023-06-10T12:39:18;98949.03;;;29.88;36.05
71151;BME280;59071;42.138;24.768;2023-06-10T12:41:49;98940.97;;;29.79;35.97
71151;BME280;59071;42.138;24.768;2023-06-10T12:44:16;98935.94;;;29.53;36.87
71151;BME280;59071;42.138;24.768;2023-06-10T12:46:41;98943.22;;;29.61;36.66
71151;BME280;59071;42.138;24.768;2023-06-10T12:49:06;98941.13;;;30.47;35.65
71151;BME280;59071;42.138;24.768;2023-06-10T12:51:32;98931.47;;;30.72;35.17
71151;BME280;59071;42.138;24.768;2023-06-10T12:53:59;98933.38;;;30.88;35.25
71151;BME280;59071;42.138;24.768;2023-06-10T12:56:24;98930.41;;;31.32;34.64
71151;BME280;59071;42.138;24.768;2023-06-10T12:58:50;98921.34;;;31.47;34.89
71151;BME280;59071;42.138;24.768;2023-06-10T13:01:15;98924.59;;;31.76;33.66